Time;durP1;ratioP1;P1;durP2;ratioP2;P2;SDS_P1;SDS_P2;PMS_P1;PMS_P2;Temp;Humidity;BMP_temperature;BMP_pressure;BME280_temperature;BME280_humidity;BME280_pressure;Samples;Min_cycle;Max_cycle;Signal;HPM_P1;HPM_P2
2023/08/30 00:04:21;;;;;;;8.07;5.27;;;;;12.50;100379.00;;;;10445643;27;20224;-77
2023/08/30 00:09:22;;;;;;;7.20;5.50;;;;;12.60;100368.00;;;;10431046;27;20524;-77
2023/08/30 00:14:23;;;;;;;7.93;5.30;;;;;12.60;100380.00;;;;10426324;27;20204;-77
2023/08/30 00:19:25;;;;;;;8.23;5.03;;;;;12.60;100367.00;;;;10411522;28;20461;-78
2023/08/30 00:24:26;;;;;;;5.97;5.20;;;;;12.60;100363.00;;;;10429333;27;20216;-76
2023/08/30 00:29:28;;;;;;;7.80;5.10;;;;;12.70;100355.00;;;;10446130;27;20387;-77
2023/08/30 00:34:29;;;;;;;7.27;5.40;;;;;12.80;100358.00;;;;10414730;27;20197;-77
2023/08/30 00:39:31;;;;;;;8.47;4.97;;;;;12.70;100344.00;;;;10425878;27;20212;-77
2023/08/30 00:44:34;;;;;;;10.77;5.37;;;;;12.60;100340.00;;;;10414291;27;20735;-78
2023/08/30 00:49:36;;;;;;;9.93;5.10;;;;;12.50;100333.00;;;;10420043;27;20200;-78
2023/08/30 00:54:38;;;;;;;7.83;5.33;;;;;12.40;100324.00;;;;10399164;27;20235;-78
2023/08/30 00:59:40;;;;;;;7.17;4.87;;;;;12.30;100319.00;;;;10429669;27;20394;-77
2023/08/30 01:04:41;;;;;;;8.33;4.70;;;;;12.20;100330.00;;;;10429459;27;20759;-78
2023/08/30 01:09:42;;;;;;;5.77;5.00;;;;;12.10;100315.00;;;;10450395;27;20299;-77
2023/08/30 01:15:00;;;;;;;8.60;4.60;;;;;12.10;100307.00;;;;10450421;27;20821;-77
2023/08/30 01:20:08;;;;;;;6.53;4.80;;;;;12.10;100312.00;;;;10422055;27;20205;-76
2023/08/30 01:25:44;;;;;;;8.93;5.23;;;;;12.00;100305.00;;;;10418468;28;20728;-77
2023/08/30 01:30:46;;;;;;;8.93;5.50;;;;;12.00;100314.00;;;;10412741;28;21254;-77
2023/08/30 01:35:47;;;;;;;7.17;5.33;;;;;11.90;100311.00;;;;10430013;27;20205;-78
2023/08/30 01:40:50;;;;;;;7.07;4.87;;;;;11.90;100308.00;;;;10453992;27;20200;-77
2023/08/30 01:45:52;;;;;;;7.20;5.30;;;;;11.80;100308.00;;;;10448335;27;20226;-78
2023/08/30 01:50:58;;;;;;;6.70;4.53;;;;;11.80;100308.00;;;;10431724;27;20406;-77
2023/08/30 01:56:00;;;;;;;8.13;5.90;;;;;11.80;100313.00;;;;10433518;27;20213;-77
2023/08/30 02:01:01;;;;;;;9.07;5.60;;;;;11.90;100291.00;;;;10432988;27;20208;-77
2023/08/30 02:06:08;;;;;;;9.70;6.40;;;;;12.00;100297.00;;;;10411809;27;20335;-77
2023/08/30 02:11:19;;;;;;;9.67;7.07;;;;;12.20;100295.00;;;;10430376;27;20595;-78
2023/08/30 02:16:22;;;;;;;8.00;6.77;;;;;12.30;100295.00;;;;10450924;27;20484;-77
2023/08/30 02:21:24;;;;;;;9.17;6.90;;;;;12.50;100297.00;;;;10428689;27;20205;-77
2023/08/30 02:26:25;;;;;;;9.90;6.17;;;;;12.70;100288.00;;;;10417343;28;21854;-78
2023/08/30 02:31:27;;;;;;;7.57;5.67;;;;;12.80;100288.00;;;;10451875;27;20200;-77
2023/08/30 02:36:28;;;;;;;7.33;5.53;;;;;12.90;100281.00;;;;10431948;27;20458;-77
2023/08/30 02:41:31;;;;;;;6.80;5.53;;;;;13.00;100283.00;;;;10415771;27;20953;-78
2023/08/30 02:46:32;;;;;;;7.47;5.03;;;;;13.10;100278.00;;;;10450277;27;20244;-78
2023/08/30 02:51:34;;;;;;;10.27;5.97;;;;;13.10;100267.00;;;;10432000;27;20281;-78
2023/08/30 02:56:35;;;;;;;7.37;5.47;;;;;13.20;100269.00;;;;10431107;27;20212;-77
2023/08/30 03:01:37;;;;;;;13.80;5.27;;;;;13.20;100258.00;;;;10413415;27;21197;-76
2023/08/30 03:06:39;;;;;;;7.37;5.50;;;;;13.30;100262.00;;;;10428061;27;20350;-77
2023/08/30 03:11:40;;;;;;;10.90;5.23;;;;;13.30;100263.00;;;;10430438;27;20295;-77
2023/08/30 03:16:44;;;;;;;7.50;4.90;;;;;13.30;100248.00;;;;10431195;27;20204;-77
2023/08/30 03:21:46;;;;;;;11.47;5.63;;;;;13.40;100239.00;;;;10430943;27;21729;-78
2023/08/30 03:26:47;;;;;;;12.37;6.87;;;;;13.40;100235.00;;;;10411864;28;20307;-78
2023/08/30 03:31:49;;;;;;;17.33;8.97;;;;;13.40;100222.00;;;;10445409;27;21326;-77
2023/08/30 03:36:54;;;;;;;14.33;7.97;;;;;13.50;100220.00;;;;10429213;27;20207;-77
2023/08/30 03:41:55;;;;;;;17.67;8.77;;;;;13.60;100210.00;;;;10427995;27;20826;-78
2023/08/30 03:46:57;;;;;;;12.37;7.33;;;;;13.60;100203.00;;;;10429672;27;20252;-77
2023/08/30 03:51:58;;;;;;;8.90;6.37;;;;;13.60;100193.00;;;;10427744;27;20216;-78
2023/08/30 03:57:01;;;;;;;9.53;6.20;;;;;13.60;100201.00;;;;10429523;27;20204;-78
2023/08/30 04:02:02;;;;;;;8.50;5.70;;;;;13.60;100187.00;;;;10448138;27;20684;-77
2023/08/30 04:07:04;;;;;;;9.17;6.10;;;;;13.60;100179.00;;;;10424051;27;20355;-77
2023/08/30 04:12:06;;;;;;;10.27;5.93;;;;;13.60;100176.00;;;;10431802;27;20830;-77
2023/08/30 04:17:07;;;;;;;10.43;5.45;;;;;13.60;100171.00;;;;10428306;27;20720;-77
2023/08/30 04:22:08;;;;;;;7.70;5.13;;;;;13.60;100173.00;;;;10434678;27;20208;-77
2023/08/30 04:27:10;;;;;;;13.37;4.87;;;;;13.70;100168.00;;;;10437106;27;20215;-77
2023/08/30 04:32:11;;;;;;;7.97;4.97;;;;;13.70;100166.00;;;;10435552;27;20511;-77
2023/08/30 04:37:13;;;;;;;15.37;5.97;;;;;13.70;100162.00;;;;10452245;27;20204;-77
2023/08/30 04:42:16;;;;;;;10.27;5.53;;;;;13.70;100158.00;;;;10437815;27;20196;-78
2023/08/30 04:47:17;;;;;;;14.83;5.87;;;;;13.80;100146.00;;;;10436994;27;20224;-77
2023/08/30 04:52:19;;;;;;;10.70;6.43;;;;;13.80;100148.00;;;;10434233;27;20303;-77
2023/08/30 04:57:20;;;;;;;9.10;5.67;;;;;13.80;100143.00;;;;10435172;27;21054;-78
2023/08/30 05:02:22;;;;;;;10.70;5.47;;;;;13.70;100140.00;;;;10432959;27;20215;-79
2023/08/30 05:07:33;;;;;;;13.73;6.27;;;;;13.50;100137.00;;;;10449511;27;20303;-78
2023/08/30 05:12:36;;;;;;;12.97;6.87;;;;;13.40;100133.00;;;;10448042;27;20221;-80
2023/08/30 05:17:37;;;;;;;13.17;6.47;;;;;13.40;100131.00;;;;10467551;27;20201;-78
2023/08/30 05:22:39;;;;;;;9.23;5.83;;;;;13.40;100127.00;;;;10453986;27;20249;-80
2023/08/30 05:27:41;;;;;;;11.57;5.97;;;;;13.40;100131.00;;;;10471315;27;20223;-80
2023/08/30 05:32:43;;;;;;;11.20;6.20;;;;;13.50;100127.00;;;;10441029;27;20291;-79
2023/08/30 05:38:07;;;;;;;12.50;6.10;;;;;13.50;100121.00;;;;10456275;28;21901;-80
2023/08/30 05:43:17;;;;;;;10.10;5.60;;;;;13.60;100119.00;;;;10457339;27;20212;-80
2023/08/30 05:48:18;;;;;;;8.53;6.07;;;;;13.60;100118.00;;;;10456451;28;20311;-79
2023/08/30 05:53:20;;;;;;;7.40;5.40;;;;;13.60;100109.00;;;;10456731;27;20269;-81
2023/08/30 05:58:22;;;;;;;10.37;6.07;;;;;13.60;100100.00;;;;10474139;27;20211;-81
2023/08/30 06:03:24;;;;;;;8.80;5.33;;;;;13.70;100084.00;;;;10459245;27;20240;-81
2023/08/30 06:08:25;;;;;;;9.03;6.37;;;;;13.70;100090.00;;;;10434495;27;20234;-78
2023/08/30 06:13:27;;;;;;;9.20;5.57;;;;;13.70;100094.00;;;;10429036;27;20281;-79
2023/08/30 06:18:35;;;;;;;7.67;5.27;;;;;13.90;100091.00;;;;10428695;27;20265;-79
2023/08/30 06:23:38;;;;;;;7.60;4.93;;;;;14.00;100084.00;;;;10412086;27;21906;-79
2023/08/30 06:28:39;;;;;;;8.60;4.93;;;;;14.30;100078.00;;;;10448240;27;20300;-79
2023/08/30 06:33:44;;;;;;;6.30;4.13;;;;;14.50;100082.00;;;;10412093;27;20204;-80
2023/08/30 06:38:45;;;;;;;4.90;4.13;;;;;14.30;100088.00;;;;10409354;27;20207;-81
2023/08/30 06:43:46;;;;;;;11.67;4.43;;;;;14.10;100082.00;;;;10397531;27;20495;-80
2023/08/30 06:48:48;;;;;;;6.33;4.27;;;;;14.00;100075.00;;;;10428307;27;20246;-79
2023/08/30 06:53:50;;;;;;;8.67;4.63;;;;;14.00;100080.00;;;;10428387;27;20701;-80
2023/08/30 06:58:52;;;;;;;7.00;4.87;;;;;14.00;100077.00;;;;10413305;27;20205;-81
2023/08/30 07:03:53;;;;;;;5.83;4.80;;;;;14.20;100074.00;;;;10428661;27;20249;-80
2023/08/30 07:08:55;;;;;;;7.50;5.20;;;;;14.30;100073.00;;;;10425331;27;21163;-81
2023/08/30 07:13:56;;;;;;;6.37;4.73;;;;;14.30;100077.00;;;;10446284;28;20205;-80
2023/08/30 07:18:58;;;;;;;7.43;4.80;;;;;14.40;100082.00;;;;10433691;27;20295;-80
2023/08/30 07:23:59;;;;;;;6.80;4.77;;;;;14.50;100080.00;;;;10460188;27;20216;-80
2023/08/30 07:29:04;;;;;;;7.07;5.20;;;;;14.40;100087.00;;;;10465724;27;21404;-79
2023/08/30 07:34:07;;;;;;;8.80;4.70;;;;;14.30;100096.00;;;;10445986;27;21061;-79
2023/08/30 07:39:09;;;;;;;5.10;4.13;;;;;14.40;100095.00;;;;10425685;27;20285;-79
2023/08/30 07:44:10;;;;;;;5.88;4.80;;;;;14.30;100092.00;;;;10440471;27;20205;-77
2023/08/30 07:49:12;;;;;;;5.70;4.90;;;;;14.60;100094.00;;;;10437032;27;20215;-79
2023/08/30 07:54:13;;;;;;;6.18;4.55;;;;;14.80;100081.00;;;;10418245;27;20200;-78
2023/08/30 07:59:14;;;;;;;8.85;5.22;;;;;14.90;100085.00;;;;10417727;27;20787;-78
2023/08/30 08:04:16;;;;;;;5.70;3.92;;;;;14.90;100080.00;;;;10417506;27;20200;-77
2023/08/30 08:09:17;;;;;;;5.80;4.07;;;;;14.90;100085.00;;;;10401287;27;20845;-76
2023/08/30 08:14:19;;;;;;;6.82;3.72;;;;;14.90;100089.00;;;;10417573;27;20291;-77
2023/08/30 08:19:21;;;;;;;6.47;4.63;;;;;15.00;100086.00;;;;10402930;28;20204;-78
2023/08/30 08:24:27;;;;;;;7.20;4.90;;;;;15.60;100077.00;;;;10436901;27;20831;-77
2023/08/30 08:29:34;;;;;;;7.00;4.63;;;;;15.60;100081.00;;;;10433096;27;20214;-77
2023/08/30 08:34:35;;;;;;;8.27;5.20;;;;;15.80;100087.00;;;;10417604;27;20215;-77
2023/08/30 08:39:36;;;;;;;5.93;4.75;;;;;16.20;100080.00;;;;10435257;27;20317;-77
2023/08/30 08:44:39;;;;;;;8.45;5.72;;;;;16.30;100090.00;;;;10416550;27;20329;-77
2023/08/30 08:49:42;;;;;;;7.05;4.88;;;;;16.40;100093.00;;;;10445422;27;20208;-77
2023/08/30 08:54:44;;;;;;;8.55;5.57;;;;;16.30;100095.00;;;;10467883;27;20209;-77
2023/08/30 08:59:46;;;;;;;8.90;6.03;;;;;16.70;100096.00;;;;10442519;27;21097;-77
2023/08/30 09:04:47;;;;;;;8.40;6.35;;;;;17.00;100096.00;;;;10469054;27;20220;-77
2023/08/30 09:09:49;;;;;;;12.15;8.95;;;;;18.30;100085.00;;;;10455061;27;20716;-78
2023/08/30 09:14:55;;;;;;;8.75;7.18;;;;;19.10;100086.00;;;;10419291;27;20212;-77
2023/08/30 09:20:09;;;;;;;9.68;7.18;;;;;19.50;100093.00;;;;10442709;27;20584;-77
2023/08/30 09:25:26;;;;;;;7.30;6.22;;;;;19.70;100084.00;;;;10461686;27;20293;-78
2023/08/30 09:30:28;;;;;;;5.90;5.07;;;;;20.20;100092.00;;;;10453012;27;21905;-78
2023/08/30 09:35:29;;;;;;;8.55;5.45;;;;;20.20;100092.00;;;;10432871;27;20336;-78
2023/08/30 09:40:30;;;;;;;6.82;5.22;;;;;20.30;100091.00;;;;10435687;27;20216;-78
2023/08/30 09:45:32;;;;;;;6.18;5.57;;;;;20.30;100088.00;;;;10462571;27;20237;-78
2023/08/30 09:50:35;;;;;;;5.97;5.38;;;;;19.70;100088.00;;;;10433730;27;20345;-79
2023/08/30 09:55:37;;;;;;;6.47;5.80;;;;;19.00;100092.00;;;;10417809;27;20271;-78
2023/08/30 10:00:39;;;;;;;6.40;5.80;;;;;18.00;100086.00;;;;10414039;27;20212;-78
2023/08/30 10:05:42;;;;;;;7.13;6.13;;;;;17.60;100091.00;;;;10409025;27;20586;-79
2023/08/30 10:10:43;;;;;;;9.13;6.38;;;;;17.20;100107.00;;;;10425175;27;20204;-78
2023/08/30 10:15:48;;;;;;;7.32;6.20;;;;;17.10;100109.00;;;;10407376;27;20222;-78
2023/08/30 10:20:52;;;;;;;8.38;7.47;;;;;17.00;100118.00;;;;10404622;27;21271;-78
2023/08/30 10:25:55;;;;;;;9.13;7.53;;;;;17.40;100103.00;;;;10425849;27;20208;-78
2023/08/30 10:30:56;;;;;;;10.32;7.15;;;;;18.00;100107.00;;;;10424508;27;20590;-78
2023/08/30 10:36:07;;;;;;;9.70;7.82;;;;;18.90;100094.00;;;;10409828;27;21232;-79
2023/08/30 10:41:09;;;;;;;10.88;8.80;;;;;19.30;100089.00;;;;10405789;27;20214;-78
2023/08/30 10:46:11;;;;;;;10.70;8.55;;;;;19.90;100088.00;;;;10423391;27;20313;-79
2023/08/30 10:51:38;;;;;;;8.18;7.38;;;;;20.90;100087.00;;;;10407342;27;20327;-79
2023/08/30 10:56:50;;;;;;;7.93;7.18;;;;;21.50;100088.00;;;;10423618;27;20204;-79
2023/08/30 11:01:52;;;;;;;8.55;6.28;;;;;20.70;100094.00;;;;10417773;27;20197;-79
2023/08/30 11:06:55;;;;;;;7.32;6.40;;;;;20.00;100095.00;;;;10424197;27;20228;-79
2023/08/30 11:12:04;;;;;;;9.38;6.65;;;;;19.80;100096.00;;;;10410290;27;20706;-79
2023/08/30 11:17:10;;;;;;;8.23;6.78;;;;;20.10;100091.00;;;;10415744;27;20384;-79
2023/08/30 11:22:16;;;;;;;10.20;7.13;;;;;20.80;100094.00;;;;10448437;27;20196;-79
2023/08/30 11:27:18;;;;;;;10.50;7.43;;;;;21.20;100090.00;;;;10414740;27;21159;-79
2023/08/30 11:32:20;;;;;;;14.63;6.78;;;;;21.60;100074.00;;;;10432155;27;20219;-79
2023/08/30 11:37:21;;;;;;;7.35;4.80;;;;;21.70;100078.00;;;;10401070;27;20204;-79
2023/08/30 11:42:24;;;;;;;10.40;5.55;;;;;21.30;100074.00;;;;10431048;27;20204;-79
2023/08/30 11:47:26;;;;;;;6.97;3.80;;;;;21.40;100090.00;;;;10430485;27;20228;-79
2023/08/30 11:52:28;;;;;;;5.07;1.92;;;;;21.20;100075.00;;;;10414953;27;20261;-78
2023/08/30 11:57:34;;;;;;;5.22;2.97;;;;;21.80;100074.00;;;;10429118;27;20250;-79
2023/08/30 12:02:35;;;;;;;8.50;2.20;;;;;23.40;100084.00;;;;10423675;27;20204;-78
2023/08/30 12:07:37;;;;;;;5.43;2.00;;;;;22.90;100086.00;;;;10425015;27;20802;-79
2023/08/30 12:12:44;;;;;;;4.90;1.92;;;;;22.90;100100.00;;;;10411450;28;20211;-80
2023/08/30 12:17:46;;;;;;;8.38;2.50;;;;;21.70;100111.00;;;;10424517;27;20193;-79
2023/08/30 12:22:49;;;;;;;5.75;2.10;;;;;20.80;100105.00;;;;10427948;28;20247;-79
2023/08/30 12:27:50;;;;;;;7.68;2.55;;;;;21.50;100102.00;;;;10424442;27;20247;-78
2023/08/30 12:33:01;;;;;;;6.88;2.17;;;;;22.70;100101.00;;;;10423744;27;20374;-79
2023/08/30 12:38:03;;;;;;;6.05;2.22;;;;;22.00;100102.00;;;;10446529;27;20208;-78
2023/08/30 12:43:04;;;;;;;6.60;2.50;;;;;22.40;100104.00;;;;10458559;27;20280;-79
2023/08/30 12:48:06;;;;;;;5.78;1.80;;;;;22.90;100086.00;;;;10452082;27;20295;-79
2023/08/30 12:53:08;;;;;;;6.22;2.05;;;;;21.70;100102.00;;;;10418174;27;20199;-79
2023/08/30 12:58:11;;;;;;;7.32;2.00;;;;;20.70;100106.00;;;;10452743;27;20197;-80
2023/08/30 13:03:13;;;;;;;6.78;2.30;;;;;20.00;100107.00;;;;10433465;27;20228;-79
2023/08/30 13:08:15;;;;;;;12.23;2.42;;;;;21.50;100120.00;;;;10429526;27;20275;-79
2023/08/30 13:13:17;;;;;;;8.32;2.33;;;;;22.40;100104.00;;;;10470918;27;20772;-79
2023/08/30 13:18:18;;;;;;;6.65;2.03;;;;;22.00;100106.00;;;;10448227;27;20239;-78
2023/08/30 13:23:20;;;;;;;7.15;1.67;;;;;20.90;100112.00;;;;10461873;27;20209;-79
2023/08/30 13:28:21;;;;;;;5.10;1.70;;;;;20.40;100112.00;;;;10454254;27;20221;-79
2023/08/30 13:33:23;;;;;;;4.72;1.67;;;;;21.10;100117.00;;;;10461628;27;20207;-79
2023/08/30 13:38:25;;;;;;;4.80;1.77;;;;;21.00;100112.00;;;;10467092;27;20197;-79
2023/08/30 13:43:26;;;;;;;8.15;2.10;;;;;21.90;100104.00;;;;10432077;27;20200;-79
2023/08/30 13:48:28;;;;;;;4.07;1.70;;;;;21.30;100112.00;;;;10430268;27;20249;-79
2023/08/30 13:53:30;;;;;;;2.75;1.20;;;;;20.50;100109.00;;;;10421574;27;20959;-79
2023/08/30 13:58:31;;;;;;;6.57;1.77;;;;;20.00;100129.00;;;;10402990;27;20218;-78
2023/08/30 14:03:33;;;;;;;3.83;1.42;;;;;20.00;100133.00;;;;10435632;27;20693;-79
2023/08/30 14:08:34;;;;;;;3.45;1.27;;;;;20.80;100123.00;;;;10419559;27;20339;-79
2023/08/30 14:13:36;;;;;;;3.72;1.42;;;;;22.60;100127.00;;;;10435097;27;20286;-79
2023/08/30 14:18:37;;;;;;;5.93;1.48;;;;;22.10;100135.00;;;;10412867;27;20203;-80
2023/08/30 14:23:38;;;;;;;5.25;1.67;;;;;21.20;100138.00;;;;10422118;27;20908;-79
2023/08/30 14:28:40;;;;;;;2.30;1.00;;;;;23.30;100113.00;;;;10441927;27;20345;-79
2023/08/30 14:33:46;;;;;;;11.15;2.17;;;;;22.10;100150.00;;;;10444923;27;20211;-79
2023/08/30 14:38:47;;;;;;;5.10;2.03;;;;;20.90;100164.00;;;;10429118;27;20288;-79
2023/08/30 14:43:49;;;;;;;6.28;1.70;;;;;19.30;100154.00;;;;10442431;27;20508;-79
2023/08/30 14:48:50;;;;;;;9.13;1.80;;;;;18.80;100159.00;;;;10443230;27;20284;-78
2023/08/30 14:53:51;;;;;;;4.88;1.75;;;;;19.10;100162.00;;;;10428031;27;20208;-78
2023/08/30 14:58:53;;;;;;;5.47;1.63;;;;;19.80;100161.00;;;;10431598;27;20872;-78
2023/08/30 15:03:55;;;;;;;3.38;1.30;;;;;19.40;100166.00;;;;10433777;27;20292;-79
2023/08/30 15:08:58;;;;;;;5.57;1.58;;;;;19.00;100174.00;;;;10426706;27;20238;-78
2023/08/30 15:13:59;;;;;;;3.45;1.55;;;;;18.80;100177.00;;;;10423509;27;20238;-78
2023/08/30 15:19:00;;;;;;;5.93;1.55;;;;;18.60;100175.00;;;;10453611;27;20279;-78
2023/08/30 15:24:04;;;;;;;5.68;1.90;;;;;18.70;100183.00;;;;10433324;27;20205;-78
2023/08/30 15:29:06;;;;;;;3.67;1.20;;;;;19.20;100179.00;;;;10390623;27;20241;-77
2023/08/30 15:34:07;;;;;;;7.72;1.45;;;;;19.00;100188.00;;;;10413448;27;21886;-78
2023/08/30 15:39:08;;;;;;;5.22;1.60;;;;;18.90;100195.00;;;;10432610;27;20212;-78
2023/08/30 15:44:10;;;;;;;5.85;1.63;;;;;19.10;100188.00;;;;10457500;27;20208;-78
2023/08/30 15:49:11;;;;;;;3.70;1.52;;;;;18.90;100192.00;;;;10447001;27;20213;-79
2023/08/30 15:54:12;;;;;;;4.03;1.00;;;;;18.60;100195.00;;;;10448190;28;22145;-79
2023/08/30 15:59:14;;;;;;;5.70;1.85;;;;;18.40;100174.00;;;;10461023;27;20750;-79
2023/08/30 16:04:15;;;;;;;2.78;1.10;;;;;18.40;100192.00;;;;10444764;27;20728;-78
2023/08/30 16:09:17;;;;;;;5.88;1.90;;;;;18.20;100201.00;;;;10458696;27;20228;-78
2023/08/30 16:14:18;;;;;;;4.78;1.63;;;;;18.10;100198.00;;;;10445455;27;20204;-78
2023/08/30 16:19:22;;;;;;;4.45;1.30;;;;;18.00;100205.00;;;;10464145;27;20212;-78
2023/08/30 16:24:23;;;;;;;4.18;1.30;;;;;18.00;100211.00;;;;10457139;27;20945;-78
2023/08/30 16:29:25;;;;;;;5.53;1.23;;;;;18.00;100211.00;;;;10413515;27;21005;-78
2023/08/30 16:34:26;;;;;;;5.13;1.38;;;;;17.90;100217.00;;;;10435598;27;20292;-78
2023/08/30 16:39:28;;;;;;;3.22;1.52;;;;;17.90;100211.00;;;;10433292;27;20208;-78
2023/08/30 16:44:29;;;;;;;3.20;1.15;;;;;18.00;100213.00;;;;10401451;27;20796;-78
2023/08/30 16:49:30;;;;;;;4.05;1.38;;;;;18.20;100218.00;;;;10446798;27;20640;-79
2023/08/30 16:54:32;;;;;;;3.92;1.10;;;;;18.50;100223.00;;;;10395083;28;20196;-80
2023/08/30 16:59:33;;;;;;;4.65;1.80;;;;;18.30;100223.00;;;;10450200;27;20943;-78
2023/08/30 17:04:35;;;;;;;3.40;1.20;;;;;18.20;100236.00;;;;10448687;28;20223;-78
2023/08/30 17:09:39;;;;;;;5.47;1.60;;;;;17.80;100226.00;;;;10464566;27;20271;-78
2023/08/30 17:14:40;;;;;;;5.10;1.67;;;;;17.50;100240.00;;;;10475307;27;21732;-78
2023/08/30 17:19:41;;;;;;;4.63;1.25;;;;;17.10;100239.00;;;;10472952;27;20218;-78
2023/08/30 17:24:43;;;;;;;5.63;1.70;;;;;16.90;100237.00;;;;10454340;27;21047;-78
2023/08/30 17:29:44;;;;;;;14.02;6.15;;;;;16.80;100245.00;;;;10442145;27;21967;-78
2023/08/30 17:34:48;;;;;;;4.05;1.83;;;;;16.60;100250.00;;;;10459010;27;20200;-77
2023/08/30 17:39:49;;;;;;;2.00;1.33;;;;;16.40;100253.00;;;;10475017;27;21582;-78
2023/08/30 17:44:51;;;;;;;3.78;1.75;;;;;16.40;100265.00;;;;10475779;27;21757;-77
2023/08/30 17:50:00;;;;;;;4.50;1.30;;;;;16.20;100256.00;;;;10428748;27;21772;-78
2023/08/30 17:55:02;;;;;;;4.88;1.40;;;;;16.20;100263.00;;;;10459136;27;21316;-78
2023/08/30 18:00:05;;;;;;;4.65;1.60;;;;;16.10;100259.00;;;;10455025;27;20236;-78
2023/08/30 18:05:13;;;;;;;5.60;1.48;;;;;16.00;100264.00;;;;10452849;28;20339;-78
2023/08/30 18:10:15;;;;;;;6.05;1.58;;;;;15.70;100273.00;;;;10451683;27;20209;-78
2023/08/30 18:15:16;;;;;;;6.10;1.67;;;;;15.50;100262.00;;;;10433402;28;20217;-78
2023/08/30 18:20:17;;;;;;;3.47;1.90;;;;;15.30;100265.00;;;;10469406;27;20203;-78
2023/08/30 18:25:19;;;;;;;4.60;2.58;;;;;15.10;100257.00;;;;10453379;27;20362;-79
2023/08/30 18:30:20;;;;;;;6.85;2.47;;;;;15.00;100274.00;;;;10432136;27;20219;-78
2023/08/30 18:35:22;;;;;;;5.63;3.47;;;;;14.80;100275.00;;;;10472793;27;20204;-79
2023/08/30 18:40:23;;;;;;;9.15;5.88;;;;;14.80;100287.00;;;;10452718;27;20204;-78
2023/08/30 18:45:25;;;;;;;8.90;5.88;;;;;14.80;100291.00;;;;10471393;27;20220;-78
2023/08/30 18:50:27;;;;;;;10.15;4.80;;;;;14.70;100304.00;;;;10449921;27;20475;-77
2023/08/30 18:55:32;;;;;;;10.05;2.88;;;;;14.70;100300.00;;;;10408642;27;20249;-78
2023/08/30 19:00:35;;;;;;;7.22;3.10;;;;;14.70;100319.00;;;;10411172;27;20201;-78
2023/08/30 19:05:39;;;;;;;7.05;3.00;;;;;14.60;100326.00;;;;10425218;27;20213;-78
2023/08/30 19:10:40;;;;;;;5.50;2.30;;;;;14.70;100338.00;;;;10420908;27;20231;-78
2023/08/30 19:15:43;;;;;;;6.90;2.42;;;;;14.70;100340.00;;;;10458112;27;20205;-79
2023/08/30 19:20:46;;;;;;;5.90;2.20;;;;;14.60;100340.00;;;;10431686;27;20287;-78
2023/08/30 19:25:55;;;;;;;4.47;2.70;;;;;14.50;100338.00;;;;10428707;27;20345;-77
2023/08/30 19:30:56;;;;;;;4.97;2.53;;;;;14.50;100348.00;;;;10451129;27;20208;-78
2023/08/30 19:35:57;;;;;;;5.97;2.50;;;;;14.50;100354.00;;;;10438207;27;20682;-78
2023/08/30 19:40:59;;;;;;;4.68;2.53;;;;;14.50;100353.00;;;;10411961;27;20200;-78
2023/08/30 19:46:04;;;;;;;5.80;2.30;;;;;14.60;100370.00;;;;10469961;27;20223;-78
2023/08/30 19:51:06;;;;;;;5.30;2.40;;;;;14.50;100390.00;;;;10467971;27;20212;-79
2023/08/30 19:56:07;;;;;;;8.05;4.78;;;;;14.00;100405.00;;;;10451615;27;20207;-78
2023/08/30 20:01:08;;;;;;;8.27;3.70;;;;;13.50;100421.00;;;;10452582;28;21331;-78
2023/08/30 20:06:10;;;;;;;6.70;4.10;;;;;13.20;100416.00;;;;10455242;28;20232;-78
2023/08/30 20:11:11;;;;;;;6.47;3.87;;;;;13.10;100412.00;;;;10474639;27;20208;-78
2023/08/30 20:16:12;;;;;;;4.57;3.60;;;;;13.10;100411.00;;;;10453457;27;20211;-78
2023/08/30 20:21:14;;;;;;;6.73;3.70;;;;;13.10;100398.00;;;;10469616;27;20251;-78
2023/08/30 20:26:16;;;;;;;5.97;3.40;;;;;13.00;100404.00;;;;10452672;27;20216;-79
2023/08/30 20:31:17;;;;;;;11.63;6.07;;;;;13.00;100394.00;;;;10469692;27;21480;-79
2023/08/30 20:36:19;;;;;;;7.40;3.17;;;;;12.90;100400.00;;;;10446762;27;21089;-79
2023/08/30 20:41:31;;;;;;;3.70;2.47;;;;;12.80;100417.00;;;;10431694;27;20296;-79
2023/08/30 20:46:33;;;;;;;3.43;2.07;;;;;12.70;100432.00;;;;10429685;27;22157;-79
2023/08/30 20:51:34;;;;;;;5.83;2.40;;;;;12.60;100428.00;;;;10467978;27;20192;-79
2023/08/30 20:56:36;;;;;;;5.03;2.10;;;;;12.50;100422.00;;;;10434356;27;20288;-78
2023/08/30 21:01:38;;;;;;;3.87;1.87;;;;;12.40;100414.00;;;;10440555;27;20219;-78
2023/08/30 21:06:39;;;;;;;2.17;1.73;;;;;12.40;100415.00;;;;10454216;27;20273;-78
2023/08/30 21:11:40;;;;;;;1.80;1.70;;;;;12.30;100407.00;;;;10452638;27;20203;-78
2023/08/30 21:16:42;;;;;;;2.03;1.50;;;;;12.30;100399.00;;;;10414096;27;20890;-77
2023/08/30 21:21:43;;;;;;;2.47;1.50;;;;;12.20;100402.00;;;;10465153;27;21256;-77
2023/08/30 21:26:45;;;;;;;2.23;1.53;;;;;12.10;100389.00;;;;10447752;27;20296;-76
2023/08/30 21:31:46;;;;;;;1.50;1.40;;;;;12.10;100387.00;;;;10446148;27;20238;-76
2023/08/30 21:36:48;;;;;;;4.23;1.90;;;;;12.00;100378.00;;;;10404797;27;20219;-76
2023/08/30 21:41:49;;;;;;;3.27;1.80;;;;;12.00;100379.00;;;;10455894;27;20211;-78
2023/08/30 21:46:52;;;;;;;3.47;1.80;;;;;12.00;100381.00;;;;10414208;27;20277;-78
2023/08/30 21:51:53;;;;;;;2.23;1.93;;;;;11.90;100381.00;;;;10411341;27;20239;-78
2023/08/30 21:56:54;;;;;;;1.73;1.50;;;;;12.00;100370.00;;;;10445316;27;20684;-77
2023/08/30 22:01:56;;;;;;;1.97;1.70;;;;;12.00;100374.00;;;;10445344;27;20700;-76
2023/08/30 22:06:57;;;;;;;2.50;1.70;;;;;12.00;100385.00;;;;10448905;27;20220;-78
2023/08/30 22:11:58;;;;;;;4.57;1.40;;;;;12.00;100388.00;;;;10451419;27;20296;-78
2023/08/30 22:17:00;;;;;;;2.63;1.53;;;;;12.00;100388.00;;;;10432029;27;20208;-78
2023/08/30 22:22:01;;;;;;;1.70;1.37;;;;;12.00;100388.00;;;;10447563;27;20208;-78
2023/08/30 22:27:04;;;;;;;4.00;1.60;;;;;12.00;100374.00;;;;10426481;27;20220;-78
2023/08/30 22:32:05;;;;;;;1.73;1.53;;;;;11.80;100381.00;;;;10431686;27;20200;-78
2023/08/30 22:37:07;;;;;;;3.80;1.63;;;;;11.70;100385.00;;;;10447607;27;20348;-77
2023/08/30 22:42:08;;;;;;;4.73;1.90;;;;;11.50;100376.00;;;;10411786;27;20208;-78
2023/08/30 22:47:09;;;;;;;5.17;1.50;;;;;11.40;100379.00;;;;10447558;27;20223;-77
2023/08/30 22:52:11;;;;;;;2.90;1.30;;;;;11.30;100375.00;;;;10432233;27;20200;-77
2023/08/30 22:57:13;;;;;;;4.07;1.37;;;;;11.20;100378.00;;;;10440995;27;20205;-77
2023/08/30 23:02:15;;;;;;;2.20;1.40;;;;;11.20;100385.00;;;;10464336;27;20204;-77
2023/08/30 23:07:17;;;;;;;3.53;1.73;;;;;11.10;100393.00;;;;10467121;27;20239;-77
2023/08/30 23:12:18;;;;;;;3.30;1.80;;;;;11.10;100385.00;;;;10417340;27;20639;-78
2023/08/30 23:17:20;;;;;;;2.33;1.57;;;;;11.10;100384.00;;;;10426331;27;20220;-78
2023/08/30 23:22:21;;;;;;;1.53;1.43;;;;;11.00;100388.00;;;;10426905;27;20662;-78
2023/08/30 23:27:23;;;;;;;2.90;1.87;;;;;11.00;100394.00;;;;10443857;27;20231;-78
2023/08/30 23:32:26;;;;;;;2.57;1.70;;;;;11.00;100389.00;;;;10393383;27;20219;-79
2023/08/30 23:37:28;;;;;;;3.37;1.60;;;;;10.90;100390.00;;;;10428628;27;20189;-78
2023/08/30 23:42:30;;;;;;;3.10;1.57;;;;;10.90;100407.00;;;;10425722;27;20227;-78
2023/08/30 23:47:31;;;;;;;7.70;1.70;;;;;10.90;100403.00;;;;10443065;27;20329;-78
2023/08/30 23:52:33;;;;;;;3.00;1.97;;;;;11.00;100402.00;;;;10444865;27;20219;-79
2023/08/30 23:57:35;;;;;;;4.60;1.87;;;;;10.90;100400.00;;;;10446844;27;20582;-77
